Time;durP1;ratioP1;P1;durP2;ratioP2;P2;SDS_P1;SDS_P2;PMS_P1;PMS_P2;Temp;Humidity;BMP_temperature;BMP_pressure;BME280_temperature;BME280_humidity;BME280_pressure;Samples;Min_cycle;Max_cycle;Signal;HPM_P1;HPM_P2
2022/11/03 00:00:26;;;;;;;9.05;2.13;;;;;;;;;;5104435;27;20057;-81
2022/11/03 00:02:52;;;;;;;8.82;1.95;;;;;;;;;;5104593;28;20071;-79
2022/11/03 00:08:04;;;;;;;8.93;1.88;;;;;;;;;;5086115;28;20063;-80
2022/11/03 00:10:33;;;;;;;9.23;2.83;;;;;;;;;;5091116;28;20506;-79
2022/11/03 00:12:59;;;;;;;15.48;2.28;;;;;;;;;;5104589;28;20056;-80
2022/11/03 00:15:25;;;;;;;15.52;2.42;;;;;;;;;;5096288;28;20061;-79
2022/11/03 00:17:51;;;;;;;12.73;2.67;;;;;;;;;;5084748;28;20063;-81
2022/11/03 00:20:18;;;;;;;12.40;2.38;;;;;;;;;;5095701;27;20109;-80
2022/11/03 00:22:44;;;;;;;9.90;2.03;;;;;;;;;;5104536;28;20079;-77
2022/11/03 00:25:10;;;;;;;12.48;2.15;;;;;;;;;;5105274;27;20055;-77
2022/11/03 00:27:37;;;;;;;11.65;2.65;;;;;;;;;;5106195;27;20056;-77
2022/11/03 00:30:03;;;;;;;12.45;2.00;;;;;;;;;;5102539;28;20052;-78
2022/11/03 00:32:29;;;;;;;12.30;2.20;;;;;;;;;;5103159;27;20150;-77
2022/11/03 00:34:56;;;;;;;12.30;2.10;;;;;;;;;;5104970;28;20493;-79
2022/11/03 00:37:22;;;;;;;14.80;2.55;;;;;;;;;;5105717;28;20065;-78
2022/11/03 00:39:48;;;;;;;14.23;2.60;;;;;;;;;;5097522;28;20052;-78
2022/11/03 00:42:14;;;;;;;10.55;2.35;;;;;;;;;;5099275;28;20051;-78
2022/11/03 00:44:41;;;;;;;10.75;2.03;;;;;;;;;;5103580;28;20052;-78
2022/11/03 00:47:07;;;;;;;11.57;2.00;;;;;;;;;;5104041;27;20052;-78
2022/11/03 00:49:33;;;;;;;12.07;1.88;;;;;;;;;;5103028;27;20051;-78
2022/11/03 00:52:00;;;;;;;16.23;2.80;;;;;;;;;;5102928;28;20052;-78
2022/11/03 00:54:26;;;;;;;12.43;2.10;;;;;;;;;;5105095;28;20052;-78
2022/11/03 00:56:52;;;;;;;14.85;2.03;;;;;;;;;;5104564;27;20055;-78
2022/11/03 00:59:18;;;;;;;15.60;1.95;;;;;;;;;;5101096;28;20499;-78
2022/11/03 01:01:45;;;;;;;12.23;2.05;;;;;;;;;;5104400;27;20079;-77
2022/11/03 01:06:59;;;;;;;13.35;2.40;;;;;;;;;;5085282;28;20053;-78
2022/11/03 01:09:28;;;;;;;14.70;2.17;;;;;;;;;;5098314;28;20048;-77
2022/11/03 01:11:54;;;;;;;15.05;1.63;;;;;;;;;;5102767;28;20059;-79
2022/11/03 01:14:21;;;;;;;13.52;2.78;;;;;;;;;;5103953;27;20064;-78
2022/11/03 01:16:48;;;;;;;5.82;1.63;;;;;;;;;;5105209;27;20060;-77
2022/11/03 01:19:14;;;;;;;13.70;2.08;;;;;;;;;;5103032;28;20137;-80
2022/11/03 01:21:44;;;;;;;10.82;2.30;;;;;;;;;;5104965;28;21446;-77
2022/11/03 01:24:11;;;;;;;27.48;2.35;;;;;;;;;;5103664;28;20060;-78
2022/11/03 01:26:37;;;;;;;8.82;2.28;;;;;;;;;;5097948;27;20497;-79
2022/11/03 01:29:04;;;;;;;14.05;1.88;;;;;;;;;;5097899;27;20052;-78
2022/11/03 01:31:39;;;;;;;11.43;1.83;;;;;;;;;;5105186;28;20508;-78
2022/11/03 01:34:17;;;;;;;10.48;2.10;;;;;;;;;;5104265;28;20099;-79
2022/11/03 01:36:44;;;;;;;9.15;1.65;;;;;;;;;;5105416;27;20052;-79
2022/11/03 01:39:14;;;;;;;13.30;2.40;;;;;;;;;;5102032;27;20074;-78
2022/11/03 01:41:41;;;;;;;11.77;2.13;;;;;;;;;;5100656;27;20054;-78
2022/11/03 01:44:08;;;;;;;11.98;1.95;;;;;;;;;;5104912;27;20059;-77
2022/11/03 01:46:42;;;;;;;15.95;2.30;;;;;;;;;;5105187;28;20913;-78
2022/11/03 01:49:12;;;;;;;12.20;2.30;;;;;;;;;;5103978;27;20048;-79
2022/11/03 01:51:42;;;;;;;13.85;2.92;;;;;;;;;;5098583;27;20060;-78
2022/11/03 01:54:11;;;;;;;12.75;2.20;;;;;;;;;;5105297;27;20048;-79
2022/11/03 01:56:39;;;;;;;11.48;1.98;;;;;;;;;;5103244;28;20048;-79
2022/11/03 01:59:06;;;;;;;14.90;2.95;;;;;;;;;;5098046;28;20137;-78
2022/11/03 02:01:32;;;;;;;11.65;2.05;;;;;;;;;;5102665;28;20056;-78
2022/11/03 02:04:02;;;;;;;12.75;2.55;;;;;;;;;;5101743;28;20109;-78
2022/11/03 02:06:28;;;;;;;13.00;2.10;;;;;;;;;;5102383;27;20509;-79
2022/11/03 02:09:05;;;;;;;11.70;2.70;;;;;;;;;;5106993;27;20052;-77
2022/11/03 02:14:19;;;;;;;9.88;1.50;;;;;;;;;;5087924;28;20064;-79
2022/11/03 02:16:48;;;;;;;14.65;2.13;;;;;;;;;;5106221;27;20056;-78
2022/11/03 02:19:22;;;;;;;12.55;1.85;;;;;;;;;;5104049;27;20062;-78
2022/11/03 02:21:58;;;;;;;8.05;1.95;;;;;;;;;;5087191;28;20056;-78
2022/11/03 02:24:47;;;;;;;9.57;1.88;;;;;;;;;;5086130;28;20083;-79
2022/11/03 02:27:20;;;;;;;10.40;1.67;;;;;;;;;;5092219;28;20056;-78
2022/11/03 02:29:46;;;;;;;11.75;2.03;;;;;;;;;;5105289;27;20052;-79
2022/11/03 02:32:25;;;;;;;13.20;2.25;;;;;;;;;;5107197;27;20060;-78
2022/11/03 02:35:00;;;;;;;12.10;1.98;;;;;;;;;;5089882;28;20048;-79
2022/11/03 02:37:28;;;;;;;11.48;1.90;;;;;;;;;;5106481;28;20059;-78
2022/11/03 02:40:00;;;;;;;10.27;1.98;;;;;;;;;;5103709;28;20059;-78
2022/11/03 02:42:26;;;;;;;10.48;1.88;;;;;;;;;;5107821;27;20055;-78
2022/11/03 02:44:57;;;;;;;9.98;1.98;;;;;;;;;;5106925;28;20051;-78
2022/11/03 02:47:24;;;;;;;8.23;1.73;;;;;;;;;;5106836;27;20052;-79
2022/11/03 02:49:54;;;;;;;15.00;2.30;;;;;;;;;;5106208;27;20062;-78
2022/11/03 02:52:32;;;;;;;12.82;1.85;;;;;;;;;;5109495;28;20568;-77
2022/11/03 02:54:59;;;;;;;10.75;2.00;;;;;;;;;;5108852;28;20060;-76
2022/11/03 02:57:28;;;;;;;12.65;2.60;;;;;;;;;;5106092;27;20053;-77
2022/11/03 03:00:00;;;;;;;12.20;1.90;;;;;;;;;;5108681;28;20055;-76
2022/11/03 03:02:32;;;;;;;9.98;2.42;;;;;;;;;;5109206;27;20063;-76
2022/11/03 03:05:01;;;;;;;10.65;2.00;;;;;;;;;;5108951;28;20090;-77
2022/11/03 03:07:36;;;;;;;14.23;2.22;;;;;;;;;;5108680;27;20059;-77
2022/11/03 03:10:08;;;;;;;9.93;2.05;;;;;;;;;;5105428;27;20063;-76
2022/11/03 03:12:36;;;;;;;10.57;1.80;;;;;;;;;;5107248;28;20048;-77
2022/11/03 03:15:05;;;;;;;10.93;1.85;;;;;;;;;;5106305;28;20060;-77
2022/11/03 03:17:35;;;;;;;9.07;2.05;;;;;;;;;;5105400;28;20059;-77
2022/11/03 03:20:17;;;;;;;11.82;2.53;;;;;;;;;;5106757;28;20083;-77
2022/11/03 03:22:50;;;;;;;13.60;2.30;;;;;;;;;;5104506;28;20066;-76
2022/11/03 03:25:22;;;;;;;9.02;2.05;;;;;;;;;;5104643;28;20044;-77
2022/11/03 03:27:51;;;;;;;14.35;2.60;;;;;;;;;;5106268;28;20062;-76
2022/11/03 03:30:18;;;;;;;14.50;2.05;;;;;;;;;;5106859;28;20056;-78
2022/11/03 03:32:46;;;;;;;11.30;2.03;;;;;;;;;;5106291;28;20056;-77
2022/11/03 03:35:23;;;;;;;13.80;2.22;;;;;;;;;;5108071;27;20964;-78
2022/11/03 03:37:52;;;;;;;15.05;2.00;;;;;;;;;;5105261;27;20059;-77
2022/11/03 03:40:21;;;;;;;9.73;2.13;;;;;;;;;;5107701;28;20044;-78
2022/11/03 03:42:51;;;;;;;14.48;2.42;;;;;;;;;;5107130;28;20062;-78
2022/11/03 03:45:18;;;;;;;9.60;1.92;;;;;;;;;;5109128;27;20093;-77
2022/11/03 03:47:45;;;;;;;13.00;2.47;;;;;;;;;;5106966;27;20067;-77
2022/11/03 03:50:16;;;;;;;11.63;2.33;;;;;;;;;;5106255;27;20048;-77
2022/11/03 03:52:42;;;;;;;11.23;2.10;;;;;;;;;;5107712;28;20056;-77
2022/11/03 03:55:15;;;;;;;7.60;1.83;;;;;;;;;;5107881;28;20060;-76
2022/11/03 03:57:42;;;;;;;9.98;2.10;;;;;;;;;;5107089;27;20208;-76
2022/11/03 04:00:09;;;;;;;9.38;1.90;;;;;;;;;;5107035;28;20052;-77
2022/11/03 04:02:36;;;;;;;9.48;1.58;;;;;;;;;;5108399;28;20051;-76
2022/11/03 04:05:03;;;;;;;15.05;2.55;;;;;;;;;;5106429;27;20048;-76
2022/11/03 04:07:47;;;;;;;11.23;2.25;;;;;;;;;;5102192;28;20063;-78
2022/11/03 04:10:14;;;;;;;13.68;2.90;;;;;;;;;;5097932;28;20052;-78
2022/11/03 04:23:41;;;;;;;10.57;2.22;;;;;;;;;;5107454;27;20066;-76
2022/11/03 04:26:11;;;;;;;11.40;2.70;;;;;;;;;;5106714;28;20067;-78
2022/11/03 04:28:37;;;;;;;8.45;2.03;;;;;;;;;;5107410;27;20052;-76
2022/11/03 04:31:08;;;;;;;15.68;2.92;;;;;;;;;;5102579;28;20518;-77
2022/11/03 04:33:47;;;;;;;11.10;2.17;;;;;;;;;;5105505;28;20168;-75
2022/11/03 04:36:16;;;;;;;11.50;2.08;;;;;;;;;;5101024;28;20056;-76
2022/11/03 04:38:43;;;;;;;13.35;2.65;;;;;;;;;;5105926;28;20048;-76
2022/11/03 04:41:15;;;;;;;10.18;2.10;;;;;;;;;;5106994;27;20418;-76
2022/11/03 04:43:41;;;;;;;10.75;2.10;;;;;;;;;;5105050;28;20060;-76
2022/11/03 04:46:12;;;;;;;7.05;1.75;;;;;;;;;;5105666;27;20052;-76
2022/11/03 04:48:38;;;;;;;10.82;2.10;;;;;;;;;;5086410;28;20159;-76
2022/11/03 04:51:12;;;;;;;10.65;2.20;;;;;;;;;;5090680;28;20063;-75
2022/11/03 04:53:39;;;;;;;11.60;2.15;;;;;;;;;;5095865;28;20056;-77
2022/11/03 04:56:12;;;;;;;7.65;2.10;;;;;;;;;;5100765;28;20059;-77
2022/11/03 04:58:38;;;;;;;10.80;1.92;;;;;;;;;;5105744;27;20049;-75
2022/11/03 05:01:08;;;;;;;12.88;2.10;;;;;;;;;;5104760;27;20082;-76
2022/11/03 05:03:36;;;;;;;14.02;2.30;;;;;;;;;;5105451;28;20048;-77
2022/11/03 05:06:14;;;;;;;11.50;2.05;;;;;;;;;;5103612;28;20048;-76
2022/11/03 05:08:41;;;;;;;11.20;1.90;;;;;;;;;;5104487;28;20067;-79
2022/11/03 05:11:13;;;;;;;10.75;1.92;;;;;;;;;;5110081;28;20052;-78
2022/11/03 05:13:39;;;;;;;12.85;2.30;;;;;;;;;;5109041;27;20866;-80
2022/11/03 05:16:06;;;;;;;11.52;2.28;;;;;;;;;;5101627;28;20064;-77
2022/11/03 05:18:34;;;;;;;13.25;2.22;;;;;;;;;;5104804;28;20052;-76
2022/11/03 05:21:02;;;;;;;13.30;2.83;;;;;;;;;;5105687;28;20059;-76
2022/11/03 05:23:30;;;;;;;12.90;2.17;;;;;;;;;;5105275;28;20056;-76
2022/11/03 05:25:57;;;;;;;13.18;2.42;;;;;;;;;;5099761;27;20063;-74
2022/11/03 05:28:25;;;;;;;10.45;2.15;;;;;;;;;;5104475;28;20498;-77
2022/11/03 05:30:52;;;;;;;11.52;2.70;;;;;;;;;;5105918;28;20052;-76
2022/11/03 05:33:20;;;;;;;10.18;2.08;;;;;;;;;;5106033;27;20169;-78
2022/11/03 05:35:47;;;;;;;7.85;2.00;;;;;;;;;;5105418;27;20070;-76
2022/11/03 05:38:14;;;;;;;10.70;2.20;;;;;;;;;;5105110;27;20085;-76
2022/11/03 05:40:40;;;;;;;10.23;2.30;;;;;;;;;;5104780;28;20063;-76
2022/11/03 05:43:07;;;;;;;17.20;2.88;;;;;;;;;;5104258;28;20055;-75
2022/11/03 05:45:37;;;;;;;10.98;2.20;;;;;;;;;;5105039;28;20044;-78
2022/11/03 05:48:23;;;;;;;12.02;2.33;;;;;;;;;;5098542;28;20044;-76
2022/11/03 05:50:50;;;;;;;11.27;2.35;;;;;;;;;;5104398;27;20790;-77
2022/11/03 05:53:28;;;;;;;11.32;2.40;;;;;;;;;;5105125;27;20542;-77
2022/11/03 05:55:55;;;;;;;6.10;1.98;;;;;;;;;;5105985;27;20059;-78
2022/11/03 05:58:34;;;;;;;9.48;2.05;;;;;;;;;;5108419;27;20048;-77
2022/11/03 06:01:05;;;;;;;14.10;2.22;;;;;;;;;;5105035;28;20040;-77
2022/11/03 06:03:35;;;;;;;9.07;2.05;;;;;;;;;;5086276;28;20056;-78
2022/11/03 06:06:01;;;;;;;9.02;2.30;;;;;;;;;;5094649;28;20044;-78
2022/11/03 06:08:34;;;;;;;16.05;2.70;;;;;;;;;;5092465;28;20106;-80
2022/11/03 06:11:02;;;;;;;10.38;3.40;;;;;;;;;;5094001;27;20055;-78
2022/11/03 06:13:36;;;;;;;11.00;2.17;;;;;;;;;;5104566;28;20063;-78
2022/11/03 06:16:23;;;;;;;22.17;2.70;;;;;;;;;;5101624;28;21061;-77
2022/11/03 06:18:50;;;;;;;16.95;2.30;;;;;;;;;;5071475;28;20060;-80
2022/11/03 06:21:20;;;;;;;12.45;2.45;;;;;;;;;;5088871;28;20056;-78
2022/11/03 06:23:47;;;;;;;9.23;2.13;;;;;;;;;;5105264;27;20087;-78
2022/11/03 06:26:16;;;;;;;10.38;2.15;;;;;;;;;;5103838;28;20059;-78
2022/11/03 06:28:43;;;;;;;9.18;1.88;;;;;;;;;;5104841;27;20060;-77
2022/11/03 06:31:16;;;;;;;10.02;2.40;;;;;;;;;;5104671;28;20817;-77
2022/11/03 06:33:48;;;;;;;8.38;2.20;;;;;;;;;;5104396;28;20087;-77
2022/11/03 06:36:17;;;;;;;7.55;1.90;;;;;;;;;;5101944;27;20060;-78
2022/11/03 06:38:47;;;;;;;6.07;1.90;;;;;;;;;;5105020;27;20573;-78
2022/11/03 06:41:19;;;;;;;10.85;2.63;;;;;;;;;;5102197;27;20056;-78
2022/11/03 06:43:45;;;;;;;11.35;2.10;;;;;;;;;;5105988;28;20059;-79
2022/11/03 06:46:32;;;;;;;9.70;2.38;;;;;;;;;;5104419;28;20506;-79
2022/11/03 06:48:59;;;;;;;9.40;2.17;;;;;;;;;;5101495;27;20048;-79
2022/11/03 06:51:26;;;;;;;9.20;1.90;;;;;;;;;;5104085;28;20056;-78
2022/11/03 06:53:54;;;;;;;10.45;2.05;;;;;;;;;;5103764;27;20066;-77
2022/11/03 06:56:21;;;;;;;13.30;3.00;;;;;;;;;;5107674;27;20056;-78
2022/11/03 06:58:48;;;;;;;16.08;2.58;;;;;;;;;;5110077;27;20052;-77
2022/11/03 07:01:17;;;;;;;9.98;2.25;;;;;;;;;;5107424;28;20063;-80
2022/11/03 07:03:44;;;;;;;12.15;3.30;;;;;;;;;;5105657;27;20060;-79
2022/11/03 07:06:10;;;;;;;14.05;2.63;;;;;;;;;;5107860;28;20063;-78
2022/11/03 07:08:40;;;;;;;14.55;2.28;;;;;;;;;;5108215;28;20056;-79
2022/11/03 07:11:23;;;;;;;13.48;2.85;;;;;;;;;;5106383;27;20059;-78
2022/11/03 07:14:08;;;;;;;12.40;2.00;;;;;;;;;;5104323;28;20085;-78
2022/11/03 07:16:43;;;;;;;8.90;2.05;;;;;;;;;;5100291;28;20056;-80
2022/11/03 07:19:15;;;;;;;12.93;2.80;;;;;;;;;;5106760;28;20118;-79
2022/11/03 07:21:49;;;;;;;9.48;2.40;;;;;;;;;;5108682;27;20055;-79
2022/11/03 07:24:22;;;;;;;11.32;2.65;;;;;;;;;;5104214;28;20047;-80
2022/11/03 07:26:52;;;;;;;7.43;3.40;;;;;;;;;;5104562;28;20048;-80
2022/11/03 07:29:19;;;;;;;;;;;;;;;;;;5120930;27;20044;-83
2022/11/03 07:31:45;;;;;;;14.45;3.70;;;;;;;;;;5124624;28;45326;-82
2022/11/03 07:34:14;;;;;;;14.32;4.00;;;;;;;;;;5129006;28;20040;-82
2022/11/03 07:36:42;;;;;;;6.80;3.00;;;;;;;;;;5127760;27;20055;-82
2022/11/03 07:39:12;;;;;;;12.15;4.07;;;;;;;;;;5132354;27;20070;-82
2022/11/03 07:41:38;;;;;;;11.45;2.67;;;;;;;;;;5131848;27;20020;-82
2022/11/03 07:44:12;;;;;;;16.02;3.42;;;;;;;;;;5118956;27;20046;-80
2022/11/03 07:46:38;;;;;;;11.93;2.50;;;;;;;;;;5109469;28;20155;-79
2022/11/03 07:49:09;;;;;;;12.20;2.75;;;;;;;;;;5112316;28;20044;-79
2022/11/03 07:51:37;;;;;;;9.25;2.50;;;;;;;;;;5108801;28;20827;-79
2022/11/03 07:54:23;;;;;;;10.68;2.17;;;;;;;;;;5110869;27;20048;-79
2022/11/03 07:56:54;;;;;;;8.40;2.20;;;;;;;;;;5105797;28;20051;-80
2022/11/03 07:59:22;;;;;;;12.27;3.28;;;;;;;;;;5112734;28;20550;-80
2022/11/03 08:01:54;;;;;;;12.15;2.80;;;;;;;;;;5090493;28;20052;-79
2022/11/03 08:04:23;;;;;;;15.30;3.08;;;;;;;;;;5090464;28;20144;-80
2022/11/03 08:06:50;;;;;;;11.35;3.13;;;;;;;;;;5095157;28;20060;-80
2022/11/03 08:09:17;;;;;;;14.52;3.67;;;;;;;;;;5109455;28;20052;-80
2022/11/03 08:11:43;;;;;;;14.95;2.67;;;;;;;;;;5109632;28;20050;-80
2022/11/03 08:14:10;;;;;;;10.35;2.22;;;;;;;;;;5110530;28;20059;-80
2022/11/03 08:16:36;;;;;;;8.57;3.00;;;;;;;;;;5106615;28;20056;-80
2022/11/03 08:19:03;;;;;;;13.10;2.80;;;;;;;;;;5089507;28;21021;-79
2022/11/03 08:21:30;;;;;;;10.60;3.22;;;;;;;;;;5090522;28;20057;-80
2022/11/03 08:23:56;;;;;;;14.40;2.80;;;;;;;;;;5095038;28;20051;-80
2022/11/03 08:26:22;;;;;;;15.27;3.63;;;;;;;;;;5096970;28;20056;-80
2022/11/03 08:28:48;;;;;;;15.45;3.40;;;;;;;;;;5101877;28;20044;-80
2022/11/03 08:31:15;;;;;;;10.20;3.90;;;;;;;;;;5097893;28;20059;-81
2022/11/03 08:33:41;;;;;;;10.25;2.85;;;;;;;;;;5097823;28;20048;-83
2022/11/03 08:36:10;;;;;;;12.43;2.60;;;;;;;;;;5094282;28;20145;-77
2022/11/03 08:38:36;;;;;;;11.75;2.90;;;;;;;;;;5096011;27;20056;-79
2022/11/03 08:41:02;;;;;;;9.15;2.50;;;;;;;;;;5105831;28;20033;-80
2022/11/03 08:43:29;;;;;;;9.60;2.03;;;;;;;;;;5098823;28;20195;-79
2022/11/03 08:45:55;;;;;;;11.63;2.75;;;;;;;;;;5096849;28;20140;-78
2022/11/03 08:48:28;;;;;;;9.68;2.63;;;;;;;;;;5100197;28;20109;-79
2022/11/03 08:50:55;;;;;;;8.40;2.10;;;;;;;;;;5100624;28;20060;-79
2022/11/03 08:53:25;;;;;;;12.27;2.72;;;;;;;;;;5097933;28;20129;-79
2022/11/03 08:55:52;;;;;;;16.13;2.85;;;;;;;;;;5101406;28;20716;-79
2022/11/03 08:58:19;;;;;;;14.60;2.85;;;;;;;;;;5101565;28;20063;-79
2022/11/03 09:00:45;;;;;;;12.38;2.67;;;;;;;;;;5106063;28;20519;-80
2022/11/03 09:03:12;;;;;;;15.30;3.20;;;;;;;;;;5103008;28;20179;-80
2022/11/03 09:05:39;;;;;;;14.05;4.00;;;;;;;;;;5102531;28;21432;-80
2022/11/03 09:08:05;;;;;;;10.57;3.10;;;;;;;;;;5098286;27;20914;-79
2022/11/03 09:10:52;;;;;;;10.32;2.45;;;;;;;;;;5094887;28;20056;-79
2022/11/03 09:13:18;;;;;;;10.32;2.30;;;;;;;;;;5099750;28;20047;-79
2022/11/03 09:15:44;;;;;;;15.90;3.10;;;;;;;;;;5096302;28;20036;-79
2022/11/03 09:18:11;;;;;;;10.27;2.75;;;;;;;;;;5099460;27;21029;-80
2022/11/03 09:20:37;;;;;;;11.05;2.60;;;;;;;;;;5089900;27;20079;-80
2022/11/03 09:23:03;;;;;;;10.00;1.85;;;;;;;;;;5097741;28;20064;-79
2022/11/03 09:25:30;;;;;;;12.27;2.85;;;;;;;;;;5097693;27;20044;-80
2022/11/03 09:27:56;;;;;;;10.63;2.78;;;;;;;;;;5097996;27;20060;-80
2022/11/03 09:30:23;;;;;;;14.30;2.53;;;;;;;;;;5097112;27;20048;-80
2022/11/03 09:32:49;;;;;;;8.75;2.40;;;;;;;;;;5107055;27;20062;-81
2022/11/03 09:35:15;;;;;;;11.65;3.58;;;;;;;;;;5123754;28;20140;-81
2022/11/03 09:37:42;;;;;;;10.10;2.38;;;;;;;;;;5122288;28;20042;-81
2022/11/03 09:40:09;;;;;;;13.52;2.60;;;;;;;;;;5122974;28;20056;-80
2022/11/03 09:42:36;;;;;;;13.57;2.72;;;;;;;;;;5113348;28;20051;-79
2022/11/03 09:45:03;;;;;;;11.50;2.45;;;;;;;;;;5114443;27;20043;-79
2022/11/03 09:47:32;;;;;;;10.70;2.00;;;;;;;;;;5115177;28;20048;-79
2022/11/03 09:49:58;;;;;;;9.57;2.20;;;;;;;;;;5115152;28;20879;-81
2022/11/03 09:52:25;;;;;;;9.85;2.03;;;;;;;;;;5108709;28;20044;-80
2022/11/03 09:54:53;;;;;;;8.27;2.13;;;;;;;;;;5113921;28;20043;-80
2022/11/03 09:57:20;;;;;;;12.65;2.78;;;;;;;;;;5115682;28;20094;-80
2022/11/03 09:59:47;;;;;;;8.50;2.10;;;;;;;;;;5114919;27;20102;-79
2022/11/03 10:02:20;;;;;;;7.97;1.80;;;;;;;;;;5107793;27;20044;-80
2022/11/03 10:04:47;;;;;;;11.52;2.17;;;;;;;;;;5114449;28;20264;-80
2022/11/03 10:07:13;;;;;;;7.93;2.10;;;;;;;;;;5114528;28;20058;-81
2022/11/03 10:09:42;;;;;;;14.30;2.10;;;;;;;;;;5113562;28;20063;-79
2022/11/03 10:12:09;;;;;;;13.07;1.88;;;;;;;;;;5116529;28;20060;-80
2022/11/03 10:14:35;;;;;;;9.02;2.17;;;;;;;;;;5117495;28;20049;-80
2022/11/03 10:17:02;;;;;;;11.05;2.33;;;;;;;;;;5112532;27;20045;-80
2022/11/03 10:19:28;;;;;;;12.85;2.65;;;;;;;;;;5096661;28;20051;-80
2022/11/03 10:21:55;;;;;;;9.63;1.98;;;;;;;;;;5099583;27;20044;-79
2022/11/03 10:24:22;;;;;;;7.47;2.00;;;;;;;;;;5093270;27;20467;-79
2022/11/03 10:26:49;;;;;;;11.43;2.90;;;;;;;;;;5097871;27;20067;-80
2022/11/03 10:29:18;;;;;;;11.52;2.78;;;;;;;;;;5106193;27;20048;-80
2022/11/03 10:31:51;;;;;;;11.40;2.10;;;;;;;;;;5114966;27;20052;-79
2022/11/03 10:34:25;;;;;;;9.77;2.40;;;;;;;;;;5110707;27;20048;-80
2022/11/03 10:37:11;;;;;;;10.65;2.42;;;;;;;;;;5108949;27;20794;-80
2022/11/03 10:39:37;;;;;;;11.05;1.92;;;;;;;;;;5107776;28;20052;-79
2022/11/03 10:42:04;;;;;;;12.82;3.03;;;;;;;;;;5102706;27;20131;-79
2022/11/03 10:44:30;;;;;;;8.02;2.05;;;;;;;;;;5111925;28;20044;-79
2022/11/03 10:47:00;;;;;;;10.32;2.40;;;;;;;;;;5104467;28;20056;-78
2022/11/03 10:49:27;;;;;;;8.57;2.33;;;;;;;;;;5106295;28;20064;-78
2022/11/03 10:51:56;;;;;;;12.85;2.13;;;;;;;;;;5103269;27;20052;-79
2022/11/03 10:54:23;;;;;;;10.93;2.63;;;;;;;;;;5107520;28;20534;-79
2022/11/03 10:56:50;;;;;;;11.88;3.00;;;;;;;;;;5108321;27;20852;-78
2022/11/03 10:59:18;;;;;;;9.82;1.45;;;;;;;;;;5107743;27;20579;-78
2022/11/03 11:01:44;;;;;;;8.00;2.30;;;;;;;;;;5098617;27;20059;-78
2022/11/03 11:04:14;;;;;;;10.77;2.17;;;;;;;;;;5102060;27;20055;-79
2022/11/03 11:06:40;;;;;;;6.93;1.98;;;;;;;;;;5105936;27;20072;-79
2022/11/03 11:09:08;;;;;;;10.20;2.00;;;;;;;;;;5089839;28;20052;-78
2022/11/03 11:11:35;;;;;;;11.73;2.30;;;;;;;;;;5098784;27;20533;-79
2022/11/03 11:14:20;;;;;;;7.68;1.83;;;;;;;;;;5090581;27;20062;-79
2022/11/03 11:16:53;;;;;;;6.32;1.70;;;;;;;;;;5106418;27;20056;-78
2022/11/03 11:19:21;;;;;;;10.80;2.35;;;;;;;;;;5095206;27;20063;-79
2022/11/03 11:21:48;;;;;;;8.98;2.35;;;;;;;;;;5096894;27;20440;-79
2022/11/03 11:24:35;;;;;;;7.38;1.63;;;;;;;;;;5101058;27;20498;-79
2022/11/03 11:27:01;;;;;;;7.55;1.60;;;;;;;;;;5105182;27;20071;-78
2022/11/03 11:29:34;;;;;;;8.77;1.98;;;;;;;;;;5104581;28;20074;-78
2022/11/03 11:32:21;;;;;;;7.80;2.00;;;;;;;;;;5104151;27;22122;-78
2022/11/03 11:34:47;;;;;;;8.02;1.88;;;;;;;;;;5105351;28;20063;-78
2022/11/03 11:37:13;;;;;;;12.55;2.42;;;;;;;;;;5101627;27;20060;-79
2022/11/03 11:39:43;;;;;;;9.32;2.03;;;;;;;;;;5101022;28;20580;-78
2022/11/03 11:42:09;;;;;;;12.18;2.22;;;;;;;;;;5105373;27;20135;-79
2022/11/03 11:44:42;;;;;;;7.30;1.90;;;;;;;;;;5102838;28;20131;-78
2022/11/03 11:47:17;;;;;;;13.00;2.67;;;;;;;;;;5101296;27;20063;-79
2022/11/03 11:49:43;;;;;;;9.05;2.00;;;;;;;;;;5105289;28;20056;-79
2022/11/03 11:52:10;;;;;;;9.60;2.00;;;;;;;;;;5100882;27;20953;-78
2022/11/03 11:54:44;;;;;;;9.40;1.83;;;;;;;;;;5100810;28;20086;-78
2022/11/03 11:57:18;;;;;;;8.40;1.83;;;;;;;;;;5100302;27;20059;-79
2022/11/03 11:59:45;;;;;;;13.70;2.15;;;;;;;;;;5091011;27;20052;-79
2022/11/03 12:02:17;;;;;;;8.07;1.60;;;;;;;;;;5107004;28;20033;-79
2022/11/03 12:04:46;;;;;;;9.52;1.98;;;;;;;;;;5099595;27;20068;-78
2022/11/03 12:07:13;;;;;;;7.53;1.98;;;;;;;;;;5102151;27;20052;-77
2022/11/03 12:09:40;;;;;;;6.03;1.65;;;;;;;;;;5104632;27;20056;-79
2022/11/03 12:12:06;;;;;;;7.80;1.88;;;;;;;;;;5102652;28;20497;-79
2022/11/03 12:14:35;;;;;;;9.38;1.83;;;;;;;;;;5100116;27;20126;-79
2022/11/03 12:17:17;;;;;;;8.18;1.90;;;;;;;;;;5102832;28;20090;-79
2022/11/03 12:19:44;;;;;;;9.07;1.83;;;;;;;;;;5086455;28;20083;-79
2022/11/03 12:22:12;;;;;;;7.95;2.10;;;;;;;;;;5089907;27;20492;-79
2022/11/03 12:24:46;;;;;;;9.00;2.55;;;;;;;;;;5101979;27;20078;-79
2022/11/03 12:27:18;;;;;;;7.78;2.10;;;;;;;;;;5102945;28;20064;-79
2022/11/03 12:29:44;;;;;;;6.47;1.73;;;;;;;;;;5107434;27;20515;-79
2022/11/03 12:32:10;;;;;;;10.70;1.83;;;;;;;;;;5100860;27;20056;-79
2022/11/03 12:34:58;;;;;;;8.50;1.70;;;;;;;;;;5108751;27;20465;-79
2022/11/03 12:37:24;;;;;;;6.93;1.70;;;;;;;;;;5108300;27;20878;-79
2022/11/03 12:39:50;;;;;;;6.68;1.38;;;;;;;;;;5108500;28;20047;-79
2022/11/03 12:42:18;;;;;;;8.75;1.55;;;;;;;;;;5100761;28;20892;-79
2022/11/03 12:44:45;;;;;;;5.93;1.90;;;;;;;;;;5105773;27;20060;-79
2022/11/03 12:47:13;;;;;;;7.78;2.08;;;;;;;;;;5105798;28;20494;-78
2022/11/03 12:49:39;;;;;;;8.43;1.65;;;;;;;;;;5108238;27;20040;-78
2022/11/03 12:52:07;;;;;;;10.10;2.20;;;;;;;;;;5107753;27;20048;-78
2022/11/03 12:54:34;;;;;;;8.50;1.83;;;;;;;;;;5106113;27;20512;-78
2022/11/03 12:57:00;;;;;;;6.70;2.10;;;;;;;;;;5104468;27;20923;-79
2022/11/03 12:59:27;;;;;;;5.40;1.42;;;;;;;;;;5108635;27;20317;-79
2022/11/03 13:01:53;;;;;;;8.07;1.90;;;;;;;;;;5109100;28;20052;-79
2022/11/03 13:04:20;;;;;;;7.57;1.80;;;;;;;;;;5108133;27;20062;-79
2022/11/03 13:06:46;;;;;;;12.02;1.80;;;;;;;;;;5106646;28;20047;-79
2022/11/03 13:09:12;;;;;;;5.15;1.25;;;;;;;;;;5110889;28;20052;-79
2022/11/03 13:14:25;;;;;;;4.75;1.73;;;;;;;;;;5101449;28;20051;-76
2022/11/03 13:16:51;;;;;;;5.88;1.60;;;;;;;;;;5101617;27;20060;-77
2022/11/03 13:19:18;;;;;;;5.65;1.60;;;;;;;;;;5104802;27;20067;-77
2022/11/03 13:21:44;;;;;;;5.97;1.63;;;;;;;;;;5099160;28;20036;-77
2022/11/03 13:24:10;;;;;;;5.75;1.60;;;;;;;;;;5102518;27;20100;-77
2022/11/03 13:26:37;;;;;;;6.93;1.77;;;;;;;;;;5102009;28;20933;-77
2022/11/03 13:29:03;;;;;;;12.15;2.15;;;;;;;;;;5104169;28;20060;-77
2022/11/03 13:31:30;;;;;;;5.78;1.70;;;;;;;;;;5105088;28;20060;-77
2022/11/03 13:33:56;;;;;;;8.77;1.83;;;;;;;;;;5102441;27;20062;-77
2022/11/03 13:36:32;;;;;;;6.90;1.52;;;;;;;;;;5102454;28;20055;-78
2022/11/03 13:39:11;;;;;;;7.70;1.80;;;;;;;;;;5099848;27;20052;-77
2022/11/03 13:41:38;;;;;;;6.93;1.60;;;;;;;;;;5099841;27;20940;-77
2022/11/03 13:44:04;;;;;;;8.95;1.88;;;;;;;;;;5102614;28;20059;-78
2022/11/03 13:46:30;;;;;;;7.97;2.05;;;;;;;;;;5102407;27;20059;-78
2022/11/03 13:48:57;;;;;;;4.22;1.30;;;;;;;;;;5103279;27;20044;-78
2022/11/03 13:51:43;;;;;;;6.70;1.90;;;;;;;;;;5092476;28;20083;-78
2022/11/03 13:54:09;;;;;;;5.20;1.90;;;;;;;;;;5093654;27;20520;-77
2022/11/03 13:56:55;;;;;;;7.90;1.83;;;;;;;;;;5100186;28;20048;-78
2022/11/03 13:59:42;;;;;;;7.78;1.80;;;;;;;;;;5099886;27;20052;-78
2022/11/03 14:02:11;;;;;;;5.35;1.80;;;;;;;;;;5102200;27;20583;-78
2022/11/03 14:04:57;;;;;;;7.93;1.92;;;;;;;;;;5107376;28;20044;-79
2022/11/03 14:07:23;;;;;;;7.22;2.00;;;;;;;;;;5106338;28;20052;-79
2022/11/03 14:09:50;;;;;;;5.10;1.92;;;;;;;;;;5096145;27;20060;-79
2022/11/03 14:12:31;;;;;;;6.13;2.05;;;;;;;;;;5104890;28;20064;-79
2022/11/03 14:14:58;;;;;;;5.57;1.70;;;;;;;;;;5104488;28;20055;-79
2022/11/03 14:17:25;;;;;;;5.10;1.58;;;;;;;;;;5104521;27;20059;-79
2022/11/03 14:19:52;;;;;;;8.05;1.77;;;;;;;;;;5110561;27;20046;-79
2022/11/03 14:22:24;;;;;;;5.57;1.42;;;;;;;;;;5106829;27;20059;-79
2022/11/03 14:24:50;;;;;;;8.25;2.00;;;;;;;;;;5107137;28;20427;-79
2022/11/03 14:27:17;;;;;;;7.18;2.10;;;;;;;;;;5107903;28;21112;-78
2022/11/03 14:29:44;;;;;;;6.88;1.75;;;;;;;;;;5104936;28;20052;-78
2022/11/03 14:32:11;;;;;;;8.65;2.13;;;;;;;;;;5107854;27;20056;-79
2022/11/03 14:34:37;;;;;;;6.88;1.40;;;;;;;;;;5096158;27;20052;-78
2022/11/03 14:37:04;;;;;;;4.03;1.80;;;;;;;;;;5110295;27;20140;-79
2022/11/03 14:39:31;;;;;;;6.57;2.03;;;;;;;;;;5106406;27;20056;-78
2022/11/03 14:42:03;;;;;;;4.60;1.55;;;;;;;;;;5104545;28;20098;-78
2022/11/03 14:44:34;;;;;;;5.97;1.65;;;;;;;;;;5107230;27;20854;-78
2022/11/03 14:47:02;;;;;;;7.60;1.90;;;;;;;;;;5108941;28;20482;-78
2022/11/03 14:49:28;;;;;;;7.20;2.15;;;;;;;;;;5104685;27;20052;-78
2022/11/03 14:51:58;;;;;;;6.32;1.65;;;;;;;;;;5105598;27;20056;-78
2022/11/03 14:54:25;;;;;;;8.13;2.22;;;;;;;;;;5100612;27;20052;-78
2022/11/03 14:56:51;;;;;;;6.57;2.10;;;;;;;;;;5094028;27;20128;-79
2022/11/03 14:59:17;;;;;;;6.20;2.25;;;;;;;;;;5097553;28;20880;-79
2022/11/03 15:01:44;;;;;;;8.52;2.60;;;;;;;;;;5107324;28;20129;-79
2022/11/03 15:04:11;;;;;;;8.35;2.45;;;;;;;;;;5101320;28;20510;-78
2022/11/03 15:06:39;;;;;;;6.28;2.10;;;;;;;;;;5108966;27;20588;-79
2022/11/03 15:09:05;;;;;;;6.57;2.05;;;;;;;;;;5093566;27;20051;-78